sensor_id;sensor_type;location;lat;lon;timestamp;P1;durP1;ratioP1;P2;durP2;ratioP2
52494;SDS011;38405;53.212;5.660;2023-02-12T00:01:32;139.30;;;8.82;;
52494;SDS011;38405;53.212;5.660;2023-02-12T00:04:01;63.38;;;7.70;;
52494;SDS011;38405;53.212;5.660;2023-02-12T00:06:27;391.25;;;15.35;;
52494;SDS011;38405;53.212;5.660;2023-02-12T00:08:54;637.33;;;21.70;;
52494;SDS011;38405;53.212;5.660;2023-02-12T00:11:21;731.15;;;18.85;;
52494;SDS011;38405;53.212;5.660;2023-02-12T00:13:49;544.88;;;15.55;;
52494;SDS011;38405;53.212;5.660;2023-02-12T00:16:17;404.13;;;11.68;;
52494;SDS011;38405;53.212;5.660;2023-02-12T00:18:45;135.75;;;5.88;;
52494;SDS011;38405;53.212;5.660;2023-02-12T00:21:11;76.75;;;6.68;;
52494;SDS011;38405;53.212;5.660;2023-02-12T00:23:38;118.10;;;6.88;;
52494;SDS011;38405;53.212;5.660;2023-02-12T00:26:09;217.88;;;13.90;;
52494;SDS011;38405;53.212;5.660;2023-02-12T00:28:37;233.60;;;9.95;;
52494;SDS011;38405;53.212;5.660;2023-02-12T00:31:13;132.68;;;8.55;;
52494;SDS011;38405;53.212;5.660;2023-02-12T00:33:41;77.68;;;7.35;;
52494;SDS011;38405;53.212;5.660;2023-02-12T00:36:07;63.05;;;4.38;;
52494;SDS011;38405;53.212;5.660;2023-02-12T00:38:37;35.28;;;4.22;;
52494;SDS011;38405;53.212;5.660;2023-02-12T00:41:02;39.65;;;3.78;;
52494;SDS011;38405;53.212;5.660;2023-02-12T00:43:28;45.25;;;3.72;;
52494;SDS011;38405;53.212;5.660;2023-02-12T00:45:54;16.70;;;3.22;;
52494;SDS011;38405;53.212;5.660;2023-02-12T00:48:20;56.38;;;4.38;;
52494;SDS011;38405;53.212;5.660;2023-02-12T00:50:46;30.42;;;3.72;;
52494;SDS011;38405;53.212;5.660;2023-02-12T00:53:12;32.05;;;3.63;;
52494;SDS011;38405;53.212;5.660;2023-02-12T00:55:39;21.17;;;4.05;;
52494;SDS011;38405;53.212;5.660;2023-02-12T00:58:05;41.85;;;3.55;;
52494;SDS011;38405;53.212;5.660;2023-02-12T01:00:31;22.13;;;2.85;;
52494;SDS011;38405;53.212;5.660;2023-02-12T01:02:56;42.10;;;3.20;;
52494;SDS011;38405;53.212;5.660;2023-02-12T01:05:22;53.67;;;3.97;;
52494;SDS011;38405;53.212;5.660;2023-02-12T01:07:52;53.38;;;3.70;;
52494;SDS011;38405;53.212;5.660;2023-02-12T01:10:19;74.70;;;4.47;;
52494;SDS011;38405;53.212;5.660;2023-02-12T01:12:45;75.32;;;4.20;;
52494;SDS011;38405;53.212;5.660;2023-02-12T01:15:11;71.05;;;4.10;;
52494;SDS011;38405;53.212;5.660;2023-02-12T01:17:37;58.10;;;3.90;;
52494;SDS011;38405;53.212;5.660;2023-02-12T01:20:04;56.88;;;3.97;;
52494;SDS011;38405;53.212;5.660;2023-02-12T01:22:35;28.60;;;3.22;;
52494;SDS011;38405;53.212;5.660;2023-02-12T01:25:02;49.60;;;4.30;;
52494;SDS011;38405;53.212;5.660;2023-02-12T01:27:28;41.20;;;3.60;;
52494;SDS011;38405;53.212;5.660;2023-02-12T01:29:54;77.85;;;5.57;;
52494;SDS011;38405;53.212;5.660;2023-02-12T01:32:20;113.50;;;6.40;;
52494;SDS011;38405;53.212;5.660;2023-02-12T01:34:46;118.55;;;5.07;;
52494;SDS011;38405;53.212;5.660;2023-02-12T01:37:11;79.47;;;5.20;;
52494;SDS011;38405;53.212;5.660;2023-02-12T01:39:37;55.25;;;4.40;;
52494;SDS011;38405;53.212;5.660;2023-02-12T01:42:03;82.03;;;7.13;;
52494;SDS011;38405;53.212;5.660;2023-02-12T01:44:29;33.33;;;5.97;;
52494;SDS011;38405;53.212;5.660;2023-02-12T01:47:00;33.15;;;5.50;;
52494;SDS011;38405;53.212;5.660;2023-02-12T01:49:29;109.18;;;8.30;;
52494;SDS011;38405;53.212;5.660;2023-02-12T01:54:39;64.03;;;6.25;;
52494;SDS011;38405;53.212;5.660;2023-02-12T01:57:07;139.80;;;9.40;;
52494;SDS011;38405;53.212;5.660;2023-02-12T01:59:34;99.05;;;9.38;;
52494;SDS011;38405;53.212;5.660;2023-02-12T02:02:01;54.17;;;6.93;;
52494;SDS011;38405;53.212;5.660;2023-02-12T02:04:28;117.88;;;8.02;;
52494;SDS011;38405;53.212;5.660;2023-02-12T02:09:25;114.68;;;11.15;;
52494;SDS011;38405;53.212;5.660;2023-02-12T02:11:52;87.05;;;7.53;;
52494;SDS011;38405;53.212;5.660;2023-02-12T02:14:36;35.92;;;5.65;;
52494;SDS011;38405;53.212;5.660;2023-02-12T02:20:15;44.92;;;5.65;;
52494;SDS011;38405;53.212;5.660;2023-02-12T02:23:22;30.15;;;6.10;;
52494;SDS011;38405;53.212;5.660;2023-02-12T02:29:02;17.63;;;4.97;;
52494;SDS011;38405;53.212;5.660;2023-02-12T02:31:59;33.30;;;5.60;;
52494;SDS011;38405;53.212;5.660;2023-02-12T02:37:00;65.35;;;5.88;;
52494;SDS011;38405;53.212;5.660;2023-02-12T02:42:34;109.55;;;6.28;;
52494;SDS011;38405;53.212;5.660;2023-02-12T02:47:53;332.83;;;14.18;;
52494;SDS011;38405;53.212;5.660;2023-02-12T02:50:24;155.35;;;12.38;;
52494;SDS011;38405;53.212;5.660;2023-02-12T02:53:04;120.70;;;9.43;;
52494;SDS011;38405;53.212;5.660;2023-02-12T02:55:45;175.30;;;12.52;;
52494;SDS011;38405;53.212;5.660;2023-02-12T02:58:22;184.52;;;15.35;;
52494;SDS011;38405;53.212;5.660;2023-02-12T03:03:26;136.95;;;11.38;;
52494;SDS011;38405;53.212;5.660;2023-02-12T03:06:09;147.10;;;10.90;;
52494;SDS011;38405;53.212;5.660;2023-02-12T03:08:45;262.10;;;14.65;;
52494;SDS011;38405;53.212;5.660;2023-02-12T03:11:22;280.42;;;15.07;;
52494;SDS011;38405;53.212;5.660;2023-02-12T03:13:55;143.57;;;10.90;;
52494;SDS011;38405;53.212;5.660;2023-02-12T03:16:28;134.95;;;9.50;;
52494;SDS011;38405;53.212;5.660;2023-02-12T03:21:42;119.20;;;8.55;;
52494;SDS011;38405;53.212;5.660;2023-02-12T03:24:15;154.48;;;12.25;;
52494;SDS011;38405;53.212;5.660;2023-02-12T03:27:02;151.65;;;13.32;;
52494;SDS011;38405;53.212;5.660;2023-02-12T03:29:51;160.27;;;11.15;;
52494;SDS011;38405;53.212;5.660;2023-02-12T03:35:13;183.07;;;11.35;;
52494;SDS011;38405;53.212;5.660;2023-02-12T03:37:45;204.25;;;13.68;;
52494;SDS011;38405;53.212;5.660;2023-02-12T03:40:21;204.60;;;12.52;;
52494;SDS011;38405;53.212;5.660;2023-02-12T03:42:54;151.52;;;10.93;;
52494;SDS011;38405;53.212;5.660;2023-02-12T03:45:49;209.95;;;9.55;;
52494;SDS011;38405;53.212;5.660;2023-02-12T03:48:21;92.45;;;7.80;;
52494;SDS011;38405;53.212;5.660;2023-02-12T03:51:01;124.00;;;9.23;;
52494;SDS011;38405;53.212;5.660;2023-02-12T03:53:49;88.72;;;9.43;;
52494;SDS011;38405;53.212;5.660;2023-02-12T03:56:17;68.93;;;8.73;;
52494;SDS011;38405;53.212;5.660;2023-02-12T03:58:51;75.55;;;7.10;;
52494;SDS011;38405;53.212;5.660;2023-02-12T04:01:17;107.55;;;9.07;;
52494;SDS011;38405;53.212;5.660;2023-02-12T04:03:43;155.98;;;13.13;;
52494;SDS011;38405;53.212;5.660;2023-02-12T04:06:19;75.45;;;8.48;;
52494;SDS011;38405;53.212;5.660;2023-02-12T04:08:49;67.85;;;7.90;;
52494;SDS011;38405;53.212;5.660;2023-02-12T04:17:08;167.07;;;12.52;;
52494;SDS011;38405;53.212;5.660;2023-02-12T04:22:54;74.15;;;8.43;;
52494;SDS011;38405;53.212;5.660;2023-02-12T04:31:02;182.75;;;11.65;;
52494;SDS011;38405;53.212;5.660;2023-02-12T04:33:34;230.13;;;13.07;;
52494;SDS011;38405;53.212;5.660;2023-02-12T04:36:12;211.88;;;11.60;;
52494;SDS011;38405;53.212;5.660;2023-02-12T04:38:56;133.05;;;10.00;;
52494;SDS011;38405;53.212;5.660;2023-02-12T04:41:25;181.70;;;9.88;;
52494;SDS011;38405;53.212;5.660;2023-02-12T04:43:51;117.70;;;8.88;;
52494;SDS011;38405;53.212;5.660;2023-02-12T04:46:16;137.82;;;9.68;;
52494;SDS011;38405;53.212;5.660;2023-02-12T04:48:52;63.97;;;9.02;;
52494;SDS011;38405;53.212;5.660;2023-02-12T04:51:22;158.48;;;13.38;;
52494;SDS011;38405;53.212;5.660;2023-02-12T04:53:48;79.43;;;10.68;;
52494;SDS011;38405;53.212;5.660;2023-02-12T04:56:15;164.85;;;12.98;;
52494;SDS011;38405;53.212;5.660;2023-02-12T04:58:41;209.45;;;10.95;;
52494;SDS011;38405;53.212;5.660;2023-02-12T05:01:07;152.98;;;13.25;;
52494;SDS011;38405;53.212;5.660;2023-02-12T05:03:34;165.98;;;11.05;;
52494;SDS011;38405;53.212;5.660;2023-02-12T05:06:04;169.70;;;13.60;;
52494;SDS011;38405;53.212;5.660;2023-02-12T05:08:30;103.32;;;9.73;;
52494;SDS011;38405;53.212;5.660;2023-02-12T05:10:57;325.40;;;16.73;;
52494;SDS011;38405;53.212;5.660;2023-02-12T05:13:27;125.35;;;11.45;;
52494;SDS011;38405;53.212;5.660;2023-02-12T05:15:53;272.55;;;14.68;;
52494;SDS011;38405;53.212;5.660;2023-02-12T05:18:19;177.90;;;12.73;;
52494;SDS011;38405;53.212;5.660;2023-02-12T05:20:44;318.30;;;14.93;;
52494;SDS011;38405;53.212;5.660;2023-02-12T05:23:10;267.23;;;14.85;;
52494;SDS011;38405;53.212;5.660;2023-02-12T05:25:35;189.05;;;11.85;;
52494;SDS011;38405;53.212;5.660;2023-02-12T05:28:01;110.38;;;11.57;;
52494;SDS011;38405;53.212;5.660;2023-02-12T05:30:27;163.98;;;13.18;;
52494;SDS011;38405;53.212;5.660;2023-02-12T05:32:52;152.82;;;13.93;;
52494;SDS011;38405;53.212;5.660;2023-02-12T05:35:18;121.45;;;10.95;;
52494;SDS011;38405;53.212;5.660;2023-02-12T05:37:44;87.80;;;10.68;;
52494;SDS011;38405;53.212;5.660;2023-02-12T05:40:10;96.07;;;12.13;;
52494;SDS011;38405;53.212;5.660;2023-02-12T05:42:35;71.78;;;11.93;;
52494;SDS011;38405;53.212;5.660;2023-02-12T05:45:01;63.67;;;11.52;;
52494;SDS011;38405;53.212;5.660;2023-02-12T05:47:27;68.75;;;13.27;;
52494;SDS011;38405;53.212;5.660;2023-02-12T05:49:52;66.38;;;13.65;;
52494;SDS011;38405;53.212;5.660;2023-02-12T05:52:18;59.20;;;13.90;;
52494;SDS011;38405;53.212;5.660;2023-02-12T05:54:44;86.35;;;13.93;;
52494;SDS011;38405;53.212;5.660;2023-02-12T05:57:09;70.05;;;14.25;;
52494;SDS011;38405;53.212;5.660;2023-02-12T05:59:35;90.43;;;16.15;;
52494;SDS011;38405;53.212;5.660;2023-02-12T06:02:00;72.80;;;14.90;;
52494;SDS011;38405;53.212;5.660;2023-02-12T06:04:28;87.28;;;15.65;;
52494;SDS011;38405;53.212;5.660;2023-02-12T06:06:55;75.45;;;15.35;;
52494;SDS011;38405;53.212;5.660;2023-02-12T06:09:21;85.30;;;16.15;;
52494;SDS011;38405;53.212;5.660;2023-02-12T06:11:47;65.18;;;14.95;;
52494;SDS011;38405;53.212;5.660;2023-02-12T06:14:14;61.92;;;16.02;;
52494;SDS011;38405;53.212;5.660;2023-02-12T06:16:49;80.68;;;14.85;;
52494;SDS011;38405;53.212;5.660;2023-02-12T06:19:15;81.22;;;16.17;;
52494;SDS011;38405;53.212;5.660;2023-02-12T06:21:42;71.72;;;16.15;;
52494;SDS011;38405;53.212;5.660;2023-02-12T06:24:11;83.38;;;16.08;;
52494;SDS011;38405;53.212;5.660;2023-02-12T06:26:38;71.88;;;16.00;;
52494;SDS011;38405;53.212;5.660;2023-02-12T06:29:03;82.63;;;17.05;;
52494;SDS011;38405;53.212;5.660;2023-02-12T06:31:30;74.57;;;16.67;;
52494;SDS011;38405;53.212;5.660;2023-02-12T06:33:59;69.00;;;15.95;;
52494;SDS011;38405;53.212;5.660;2023-02-12T06:36:26;46.10;;;14.38;;
52494;SDS011;38405;53.212;5.660;2023-02-12T06:38:52;64.05;;;16.08;;
52494;SDS011;38405;53.212;5.660;2023-02-12T06:41:18;81.65;;;17.70;;
52494;SDS011;38405;53.212;5.660;2023-02-12T06:43:43;56.88;;;16.92;;
52494;SDS011;38405;53.212;5.660;2023-02-12T06:46:09;65.60;;;17.77;;
52494;SDS011;38405;53.212;5.660;2023-02-12T06:48:35;65.45;;;17.25;;
52494;SDS011;38405;53.212;5.660;2023-02-12T06:51:08;60.35;;;17.35;;
52494;SDS011;38405;53.212;5.660;2023-02-12T06:53:35;65.28;;;17.50;;
52494;SDS011;38405;53.212;5.660;2023-02-12T06:56:03;56.15;;;17.20;;
52494;SDS011;38405;53.212;5.660;2023-02-12T06:58:30;71.05;;;18.20;;
52494;SDS011;38405;53.212;5.660;2023-02-12T07:00:55;55.55;;;17.80;;
52494;SDS011;38405;53.212;5.660;2023-02-12T07:03:21;54.28;;;17.67;;
52494;SDS011;38405;53.212;5.660;2023-02-12T07:05:47;69.22;;;17.90;;
52494;SDS011;38405;53.212;5.660;2023-02-12T07:08:15;55.78;;;18.00;;
52494;SDS011;38405;53.212;5.660;2023-02-12T07:10:40;62.47;;;18.20;;
52494;SDS011;38405;53.212;5.660;2023-02-12T07:13:06;48.45;;;17.00;;
52494;SDS011;38405;53.212;5.660;2023-02-12T07:15:32;56.63;;;17.83;;
52494;SDS011;38405;53.212;5.660;2023-02-12T07:17:57;52.50;;;16.83;;
52494;SDS011;38405;53.212;5.660;2023-02-12T07:20:23;63.42;;;18.30;;
52494;SDS011;38405;53.212;5.660;2023-02-12T07:22:48;57.97;;;16.98;;
52494;SDS011;38405;53.212;5.660;2023-02-12T07:25:14;48.75;;;15.45;;
52494;SDS011;38405;53.212;5.660;2023-02-12T07:27:40;48.30;;;16.05;;
52494;SDS011;38405;53.212;5.660;2023-02-12T07:30:05;51.05;;;16.05;;
52494;SDS011;38405;53.212;5.660;2023-02-12T07:32:34;54.58;;;17.10;;
52494;SDS011;38405;53.212;5.660;2023-02-12T07:35:00;50.33;;;16.02;;
52494;SDS011;38405;53.212;5.660;2023-02-12T07:37:26;39.30;;;16.27;;
52494;SDS011;38405;53.212;5.660;2023-02-12T07:39:51;48.15;;;16.85;;
52494;SDS011;38405;53.212;5.660;2023-02-12T07:42:23;45.92;;;16.02;;
52494;SDS011;38405;53.212;5.660;2023-02-12T07:44:49;50.25;;;16.55;;
52494;SDS011;38405;53.212;5.660;2023-02-12T07:47:15;51.60;;;16.73;;
52494;SDS011;38405;53.212;5.660;2023-02-12T07:49:41;45.47;;;17.10;;
52494;SDS011;38405;53.212;5.660;2023-02-12T07:52:06;51.13;;;16.70;;
52494;SDS011;38405;53.212;5.660;2023-02-12T07:54:32;46.28;;;16.70;;
52494;SDS011;38405;53.212;5.660;2023-02-12T07:56:57;45.08;;;16.55;;
52494;SDS011;38405;53.212;5.660;2023-02-12T07:59:24;52.67;;;16.80;;
52494;SDS011;38405;53.212;5.660;2023-02-12T08:01:51;53.75;;;17.23;;
52494;SDS011;38405;53.212;5.660;2023-02-12T08:04:18;44.10;;;17.35;;
52494;SDS011;38405;53.212;5.660;2023-02-12T08:06:47;43.00;;;16.65;;
52494;SDS011;38405;53.212;5.660;2023-02-12T08:09:18;48.70;;;16.85;;
52494;SDS011;38405;53.212;5.660;2023-02-12T08:11:45;38.85;;;15.52;;
52494;SDS011;38405;53.212;5.660;2023-02-12T08:14:12;56.40;;;17.60;;
52494;SDS011;38405;53.212;5.660;2023-02-12T08:16:40;43.47;;;17.17;;
52494;SDS011;38405;53.212;5.660;2023-02-12T08:19:10;39.75;;;16.23;;
52494;SDS011;38405;53.212;5.660;2023-02-12T08:21:37;51.40;;;16.60;;
52494;SDS011;38405;53.212;5.660;2023-02-12T08:24:06;47.53;;;18.38;;
52494;SDS011;38405;53.212;5.660;2023-02-12T08:26:34;46.17;;;17.90;;
52494;SDS011;38405;53.212;5.660;2023-02-12T08:29:03;44.75;;;16.67;;
52494;SDS011;38405;53.212;5.660;2023-02-12T08:31:37;37.35;;;15.35;;
52494;SDS011;38405;53.212;5.660;2023-02-12T08:34:05;38.38;;;15.75;;
52494;SDS011;38405;53.212;5.660;2023-02-12T08:36:45;41.08;;;16.35;;
52494;SDS011;38405;53.212;5.660;2023-02-12T08:39:12;38.65;;;17.02;;
52494;SDS011;38405;53.212;5.660;2023-02-12T08:41:38;43.58;;;18.33;;
52494;SDS011;38405;53.212;5.660;2023-02-12T08:44:06;42.22;;;16.23;;
52494;SDS011;38405;53.212;5.660;2023-02-12T08:46:33;40.28;;;16.67;;
52494;SDS011;38405;53.212;5.660;2023-02-12T08:49:01;43.10;;;17.27;;
52494;SDS011;38405;53.212;5.660;2023-02-12T08:51:37;38.33;;;17.20;;
52494;SDS011;38405;53.212;5.660;2023-02-12T08:54:05;43.33;;;17.75;;
52494;SDS011;38405;53.212;5.660;2023-02-12T08:56:32;40.30;;;17.95;;
52494;SDS011;38405;53.212;5.660;2023-02-12T08:58:59;45.55;;;18.33;;
52494;SDS011;38405;53.212;5.660;2023-02-12T09:01:29;36.13;;;17.45;;
52494;SDS011;38405;53.212;5.660;2023-02-12T09:03:57;36.00;;;16.95;;
52494;SDS011;38405;53.212;5.660;2023-02-12T09:06:23;40.67;;;18.63;;
52494;SDS011;38405;53.212;5.660;2023-02-12T09:08:50;47.75;;;19.73;;
52494;SDS011;38405;53.212;5.660;2023-02-12T09:11:18;43.08;;;19.13;;
52494;SDS011;38405;53.212;5.660;2023-02-12T09:13:48;37.90;;;18.77;;
52494;SDS011;38405;53.212;5.660;2023-02-12T09:16:14;36.10;;;17.13;;
52494;SDS011;38405;53.212;5.660;2023-02-12T09:18:40;40.80;;;19.13;;
52494;SDS011;38405;53.212;5.660;2023-02-12T09:21:13;35.17;;;18.63;;
52494;SDS011;38405;53.212;5.660;2023-02-12T09:23:41;39.17;;;18.38;;
52494;SDS011;38405;53.212;5.660;2023-02-12T09:26:08;36.80;;;17.50;;
52494;SDS011;38405;53.212;5.660;2023-02-12T09:28:39;32.63;;;17.00;;
52494;SDS011;38405;53.212;5.660;2023-02-12T09:31:06;37.22;;;18.10;;
52494;SDS011;38405;53.212;5.660;2023-02-12T09:33:37;35.53;;;17.52;;
52494;SDS011;38405;53.212;5.660;2023-02-12T09:36:10;34.85;;;17.98;;
52494;SDS011;38405;53.212;5.660;2023-02-12T09:38:38;34.08;;;17.58;;
52494;SDS011;38405;53.212;5.660;2023-02-12T09:44:18;30.88;;;16.80;;
52494;SDS011;38405;53.212;5.660;2023-02-12T09:46:52;31.40;;;16.77;;
52494;SDS011;38405;53.212;5.660;2023-02-12T09:49:33;29.98;;;16.50;;
52494;SDS011;38405;53.212;5.660;2023-02-12T09:52:25;26.25;;;15.63;;
52494;SDS011;38405;53.212;5.660;2023-02-12T09:54:53;34.70;;;16.50;;
52494;SDS011;38405;53.212;5.660;2023-02-12T09:59:51;29.55;;;16.65;;
52494;SDS011;38405;53.212;5.660;2023-02-12T10:02:22;33.03;;;16.23;;
52494;SDS011;38405;53.212;5.660;2023-02-12T10:04:49;28.00;;;15.40;;
52494;SDS011;38405;53.212;5.660;2023-02-12T10:10:16;25.10;;;14.20;;
52494;SDS011;38405;53.212;5.660;2023-02-12T10:18:06;23.23;;;15.27;;
52494;SDS011;38405;53.212;5.660;2023-02-12T10:28:25;27.05;;;15.95;;
52494;SDS011;38405;53.212;5.660;2023-02-12T10:36:13;31.02;;;17.30;;
52494;SDS011;38405;53.212;5.660;2023-02-12T10:38:56;27.90;;;16.50;;
52494;SDS011;38405;53.212;5.660;2023-02-12T10:41:26;27.08;;;16.80;;
52494;SDS011;38405;53.212;5.660;2023-02-12T10:43:54;28.92;;;16.88;;
52494;SDS011;38405;53.212;5.660;2023-02-12T10:46:20;30.92;;;17.52;;
52494;SDS011;38405;53.212;5.660;2023-02-12T10:48:50;30.27;;;18.23;;
52494;SDS011;38405;53.212;5.660;2023-02-12T10:51:33;29.75;;;16.38;;
52494;SDS011;38405;53.212;5.660;2023-02-12T10:57:21;26.75;;;17.27;;
52494;SDS011;38405;53.212;5.660;2023-02-12T10:59:53;28.33;;;18.33;;
52494;SDS011;38405;53.212;5.660;2023-02-12T11:04:55;31.30;;;17.85;;
52494;SDS011;38405;53.212;5.660;2023-02-12T11:07:24;26.20;;;16.38;;
52494;SDS011;38405;53.212;5.660;2023-02-12T11:09:52;31.65;;;18.00;;
52494;SDS011;38405;53.212;5.660;2023-02-12T11:14:49;24.63;;;17.17;;
52494;SDS011;38405;53.212;5.660;2023-02-12T11:17:22;26.08;;;16.73;;
52494;SDS011;38405;53.212;5.660;2023-02-12T11:20:02;24.45;;;17.00;;
52494;SDS011;38405;53.212;5.660;2023-02-12T11:22:33;24.25;;;16.50;;
52494;SDS011;38405;53.212;5.660;2023-02-12T11:25:01;25.73;;;16.70;;
52494;SDS011;38405;53.212;5.660;2023-02-12T11:27:37;24.67;;;16.48;;
52494;SDS011;38405;53.212;5.660;2023-02-12T11:30:10;25.40;;;15.95;;
52494;SDS011;38405;53.212;5.660;2023-02-12T11:32:44;24.73;;;15.80;;
52494;SDS011;38405;53.212;5.660;2023-02-12T11:35:15;23.15;;;15.93;;
52494;SDS011;38405;53.212;5.660;2023-02-12T11:37:52;25.58;;;16.25;;
52494;SDS011;38405;53.212;5.660;2023-02-12T11:40:23;25.38;;;15.80;;
52494;SDS011;38405;53.212;5.660;2023-02-12T11:42:52;22.20;;;15.60;;
52494;SDS011;38405;53.212;5.660;2023-02-12T11:45:31;25.25;;;15.90;;
52494;SDS011;38405;53.212;5.660;2023-02-12T11:48:18;20.17;;;15.18;;
52494;SDS011;38405;53.212;5.660;2023-02-12T11:50:48;20.50;;;15.48;;
52494;SDS011;38405;53.212;5.660;2023-02-12T11:56:01;17.92;;;14.07;;
52494;SDS011;38405;53.212;5.660;2023-02-12T11:58:35;20.35;;;14.25;;
52494;SDS011;38405;53.212;5.660;2023-02-12T12:04:07;18.88;;;13.27;;
52494;SDS011;38405;53.212;5.660;2023-02-12T12:06:38;19.30;;;14.00;;
52494;SDS011;38405;53.212;5.660;2023-02-12T12:14:49;19.92;;;14.20;;
52494;SDS011;38405;53.212;5.660;2023-02-12T12:20:32;18.60;;;13.02;;
52494;SDS011;38405;53.212;5.660;2023-02-12T12:23:08;20.05;;;14.25;;
52494;SDS011;38405;53.212;5.660;2023-02-12T12:25:45;16.98;;;12.20;;
52494;SDS011;38405;53.212;5.660;2023-02-12T12:31:32;15.75;;;11.50;;
52494;SDS011;38405;53.212;5.660;2023-02-12T12:36:38;17.67;;;12.98;;
52494;SDS011;38405;53.212;5.660;2023-02-12T13:06:07;14.07;;;11.38;;
52494;SDS011;38405;53.212;5.660;2023-02-12T13:11:38;13.20;;;11.05;;
52494;SDS011;38405;53.212;5.660;2023-02-12T13:28:02;11.25;;;8.60;;
52494;SDS011;38405;53.212;5.660;2023-02-12T13:30:32;11.55;;;9.52;;
52494;SDS011;38405;53.212;5.660;2023-02-12T13:35:51;11.57;;;8.63;;
52494;SDS011;38405;53.212;5.660;2023-02-12T13:38:27;13.00;;;9.30;;
52494;SDS011;38405;53.212;5.660;2023-02-12T13:41:00;10.50;;;8.68;;
52494;SDS011;38405;53.212;5.660;2023-02-12T13:57:10;11.35;;;8.60;;
52494;SDS011;38405;53.212;5.660;2023-02-12T13:59:39;11.82;;;8.98;;
52494;SDS011;38405;53.212;5.660;2023-02-12T14:08:04;12.43;;;8.68;;
52494;SDS011;38405;53.212;5.660;2023-02-12T14:10:35;12.13;;;9.18;;
52494;SDS011;38405;53.212;5.660;2023-02-12T14:15:46;15.00;;;9.82;;
52494;SDS011;38405;53.212;5.660;2023-02-12T14:23:36;13.45;;;9.20;;
52494;SDS011;38405;53.212;5.660;2023-02-12T14:26:07;11.55;;;8.90;;
52494;SDS011;38405;53.212;5.660;2023-02-12T14:28:55;10.55;;;9.07;;
52494;SDS011;38405;53.212;5.660;2023-02-12T14:44:36;11.65;;;9.20;;
52494;SDS011;38405;53.212;5.660;2023-02-12T14:47:20;15.68;;;9.40;;
52494;SDS011;38405;53.212;5.660;2023-02-12T14:50:14;9.98;;;8.93;;
52494;SDS011;38405;53.212;5.660;2023-02-12T14:52:46;14.00;;;9.90;;
52494;SDS011;38405;53.212;5.660;2023-02-12T14:55:18;10.40;;;8.93;;
52494;SDS011;38405;53.212;5.660;2023-02-12T14:57:50;10.75;;;9.02;;
52494;SDS011;38405;53.212;5.660;2023-02-12T15:00:40;10.48;;;9.20;;
52494;SDS011;38405;53.212;5.660;2023-02-12T15:06:00;14.40;;;9.18;;
52494;SDS011;38405;53.212;5.660;2023-02-12T15:11:41;13.32;;;9.23;;
52494;SDS011;38405;53.212;5.660;2023-02-12T15:19:32;13.50;;;9.77;;
52494;SDS011;38405;53.212;5.660;2023-02-12T15:22:16;13.90;;;10.43;;
52494;SDS011;38405;53.212;5.660;2023-02-12T15:24:48;15.07;;;10.05;;
52494;SDS011;38405;53.212;5.660;2023-02-12T15:27:14;12.65;;;10.25;;
52494;SDS011;38405;53.212;5.660;2023-02-12T15:29:48;12.68;;;9.75;;
52494;SDS011;38405;53.212;5.660;2023-02-12T15:32:18;13.25;;;9.20;;
52494;SDS011;38405;53.212;5.660;2023-02-12T15:34:49;10.93;;;9.20;;
52494;SDS011;38405;53.212;5.660;2023-02-12T15:37:24;14.02;;;9.77;;
52494;SDS011;38405;53.212;5.660;2023-02-12T15:39:52;11.60;;;9.93;;
52494;SDS011;38405;53.212;5.660;2023-02-12T15:47:43;18.48;;;11.82;;
52494;SDS011;38405;53.212;5.660;2023-02-12T15:50:14;17.15;;;12.43;;
52494;SDS011;38405;53.212;5.660;2023-02-12T15:52:44;17.52;;;12.23;;
52494;SDS011;38405;53.212;5.660;2023-02-12T15:55:16;16.17;;;11.15;;
52494;SDS011;38405;53.212;5.660;2023-02-12T15:57:48;15.27;;;11.25;;
52494;SDS011;38405;53.212;5.660;2023-02-12T16:01:00;14.07;;;10.25;;
52494;SDS011;38405;53.212;5.660;2023-02-12T16:05:59;15.60;;;10.82;;
52494;SDS011;38405;53.212;5.660;2023-02-12T16:08:35;12.02;;;10.25;;
52494;SDS011;38405;53.212;5.660;2023-02-12T16:11:01;14.35;;;10.10;;
52494;SDS011;38405;53.212;5.660;2023-02-12T16:13:37;14.55;;;10.73;;
52494;SDS011;38405;53.212;5.660;2023-02-12T16:18:38;16.55;;;11.65;;
52494;SDS011;38405;53.212;5.660;2023-02-12T16:23:43;15.13;;;11.18;;
52494;SDS011;38405;53.212;5.660;2023-02-12T16:26:18;15.48;;;11.60;;
52494;SDS011;38405;53.212;5.660;2023-02-12T16:28:47;13.65;;;11.18;;
52494;SDS011;38405;53.212;5.660;2023-02-12T16:31:15;13.93;;;11.40;;
52494;SDS011;38405;53.212;5.660;2023-02-12T16:39:03;15.15;;;11.35;;
52494;SDS011;38405;53.212;5.660;2023-02-12T16:41:30;13.25;;;11.13;;
52494;SDS011;38405;53.212;5.660;2023-02-12T16:46:50;19.45;;;11.48;;
52494;SDS011;38405;53.212;5.660;2023-02-12T16:49:21;15.30;;;11.93;;
52494;SDS011;38405;53.212;5.660;2023-02-12T16:51:49;15.90;;;11.60;;
52494;SDS011;38405;53.212;5.660;2023-02-12T16:56:52;14.77;;;12.27;;
52494;SDS011;38405;53.212;5.660;2023-02-12T16:59:21;14.50;;;11.32;;
52494;SDS011;38405;53.212;5.660;2023-02-12T17:02:00;13.75;;;11.40;;
52494;SDS011;38405;53.212;5.660;2023-02-12T17:04:36;15.57;;;11.77;;
52494;SDS011;38405;53.212;5.660;2023-02-12T17:07:02;16.17;;;12.20;;
52494;SDS011;38405;53.212;5.660;2023-02-12T17:09:27;16.45;;;11.88;;
52494;SDS011;38405;53.212;5.660;2023-02-12T17:11:54;16.00;;;12.13;;
52494;SDS011;38405;53.212;5.660;2023-02-12T17:14:21;14.63;;;11.55;;
52494;SDS011;38405;53.212;5.660;2023-02-12T17:16:47;17.58;;;12.82;;
52494;SDS011;38405;53.212;5.660;2023-02-12T17:19:13;16.20;;;12.52;;
52494;SDS011;38405;53.212;5.660;2023-02-12T17:21:40;16.63;;;12.68;;
52494;SDS011;38405;53.212;5.660;2023-02-12T17:26:52;14.13;;;11.82;;
52494;SDS011;38405;53.212;5.660;2023-02-12T17:29:20;17.20;;;12.35;;
52494;SDS011;38405;53.212;5.660;2023-02-12T17:31:47;16.92;;;12.63;;
52494;SDS011;38405;53.212;5.660;2023-02-12T17:34:14;18.65;;;13.75;;
52494;SDS011;38405;53.212;5.660;2023-02-12T17:36:40;16.10;;;12.35;;
52494;SDS011;38405;53.212;5.660;2023-02-12T17:39:06;17.30;;;12.63;;
52494;SDS011;38405;53.212;5.660;2023-02-12T17:41:35;20.77;;;12.27;;
52494;SDS011;38405;53.212;5.660;2023-02-12T17:44:00;18.58;;;12.85;;
52494;SDS011;38405;53.212;5.660;2023-02-12T17:46:27;15.25;;;11.95;;
52494;SDS011;38405;53.212;5.660;2023-02-12T17:48:53;19.30;;;12.68;;
52494;SDS011;38405;53.212;5.660;2023-02-12T17:51:19;18.55;;;13.27;;
52494;SDS011;38405;53.212;5.660;2023-02-12T17:53:45;16.90;;;12.15;;
52494;SDS011;38405;53.212;5.660;2023-02-12T17:56:12;15.95;;;12.05;;
52494;SDS011;38405;53.212;5.660;2023-02-12T17:58:40;17.13;;;13.07;;
52494;SDS011;38405;53.212;5.660;2023-02-12T18:01:06;16.13;;;12.85;;
52494;SDS011;38405;53.212;5.660;2023-02-12T18:03:34;17.20;;;12.02;;
52494;SDS011;38405;53.212;5.660;2023-02-12T18:06:00;16.92;;;12.27;;
52494;SDS011;38405;53.212;5.660;2023-02-12T18:08:26;16.08;;;12.65;;
52494;SDS011;38405;53.212;5.660;2023-02-12T18:10:52;15.10;;;12.52;;
52494;SDS011;38405;53.212;5.660;2023-02-12T18:13:18;18.05;;;12.60;;
52494;SDS011;38405;53.212;5.660;2023-02-12T18:15:47;17.38;;;12.82;;
52494;SDS011;38405;53.212;5.660;2023-02-12T18:18:12;19.33;;;13.57;;
52494;SDS011;38405;53.212;5.660;2023-02-12T18:20:40;17.33;;;12.73;;
52494;SDS011;38405;53.212;5.660;2023-02-12T18:23:07;15.63;;;12.43;;